Time;durP1;ratioP1;P1;durP2;ratioP2;P2;SDS_P1;SDS_P2;PMS_P1;PMS_P2;Temp;Humidity;BMP_temperature;BMP_pressure;BME280_temperature;BME280_humidity;BME280_pressure;Samples;Min_cycle;Max_cycle;Signal;HPM_P1;HPM_P2
2021/10/03 00:00:53;;;;;;;11.40;3.60;;;19.50;99.90;;;;;;5090905;28;20034;-56
2021/10/03 00:03:21;;;;;;;4.03;3.05;;;19.50;99.90;;;;;;5061330;28;20082;-54
2021/10/03 00:05:48;;;;;;;4.25;2.83;;;19.40;99.90;;;;;;5091484;28;20032;-57
2021/10/03 00:08:14;;;;;;;7.90;4.60;;;19.40;99.90;;;;;;5090439;28;20089;-57
2021/10/03 00:10:41;;;;;;;4.82;2.88;;;19.40;99.90;;;;;;5092006;28;20571;-57
2021/10/03 00:13:06;;;;;;;7.75;3.55;;;19.50;99.90;;;;;;5089402;28;20107;-58
2021/10/03 00:15:34;;;;;;;18.55;3.80;;;19.50;99.90;;;;;;5091539;28;20150;-57
2021/10/03 00:18:00;;;;;;;12.85;3.65;;;19.40;99.90;;;;;;5091330;28;20028;-57
2021/10/03 00:20:27;;;;;;;6.38;3.55;;;19.40;99.90;;;;;;5091803;28;20051;-58
2021/10/03 00:22:53;;;;;;;8.93;3.15;;;19.40;99.90;;;;;;5091654;28;20056;-58
2021/10/03 00:25:19;;;;;;;7.72;2.88;;;19.50;99.90;;;;;;5091705;28;20105;-55
2021/10/03 00:27:45;;;;;;;4.15;3.17;;;19.50;99.90;;;;;;5091411;28;20493;-57
2021/10/03 00:30:15;;;;;;;7.45;3.15;;;19.40;99.90;;;;;;5090431;28;20636;-54
2021/10/03 00:32:40;;;;;;;7.43;3.33;;;19.40;99.90;;;;;;5091688;28;20111;-53
2021/10/03 00:35:07;;;;;;;7.68;3.22;;;19.50;99.90;;;;;;5090015;28;20031;-53
2021/10/03 00:37:32;;;;;;;5.20;3.13;;;19.50;99.90;;;;;;5091126;28;20073;-55
2021/10/03 00:39:58;;;;;;;10.38;3.50;;;19.40;99.90;;;;;;5091220;28;20391;-56
2021/10/03 00:42:24;;;;;;;4.32;3.20;;;19.40;99.90;;;;;;5091703;28;20552;-54
2021/10/03 00:44:50;;;;;;;7.82;2.72;;;19.40;99.90;;;;;;5091475;28;20564;-62
2021/10/03 00:47:16;;;;;;;5.90;2.83;;;19.40;99.90;;;;;;5092407;28;20019;-57
2021/10/03 00:49:43;;;;;;;3.97;2.67;;;19.40;99.90;;;;;;5092287;28;20032;-59
2021/10/03 00:52:09;;;;;;;5.88;3.03;;;19.40;99.90;;;;;;5092634;28;20491;-57
2021/10/03 00:54:35;;;;;;;7.72;2.40;;;19.40;99.90;;;;;;5092292;28;20073;-54
2021/10/03 00:57:01;;;;;;;6.72;3.30;;;19.40;99.90;;;;;;5091165;28;20035;-56
2021/10/03 00:59:27;;;;;;;7.10;3.00;;;19.30;99.90;;;;;;5091156;28;20309;-58
2021/10/03 01:01:52;;;;;;;5.65;2.65;;;19.30;99.90;;;;;;5092484;28;20064;-54
2021/10/03 01:04:18;;;;;;;3.67;2.85;;;19.30;99.90;;;;;;5091583;28;20441;-57
2021/10/03 01:06:44;;;;;;;8.25;2.72;;;19.30;99.90;;;;;;5091007;28;20053;-57
2021/10/03 01:09:10;;;;;;;4.03;3.03;;;19.30;99.90;;;;;;5086779;28;20024;-55
2021/10/03 01:11:36;;;;;;;9.95;2.35;;;19.30;99.90;;;;;;5091885;28;20036;-56
2021/10/03 01:14:02;;;;;;;2.95;2.08;;;19.30;99.90;;;;;;5092336;28;20099;-54
2021/10/03 01:16:27;;;;;;;8.18;2.75;;;19.30;99.90;;;;;;5091533;28;20032;-54
2021/10/03 01:18:55;;;;;;;3.35;2.47;;;19.20;99.90;;;;;;5091667;28;20032;-56
2021/10/03 01:21:21;;;;;;;6.03;2.15;;;19.20;99.90;;;;;;5091592;28;20476;-53
2021/10/03 01:23:46;;;;;;;5.85;2.72;;;19.20;99.90;;;;;;5091855;28;20111;-57
2021/10/03 01:26:12;;;;;;;3.63;2.40;;;19.20;99.90;;;;;;5091566;28;20027;-55
2021/10/03 01:28:38;;;;;;;2.97;2.10;;;19.20;99.90;;;;;;5091197;28;20036;-57
2021/10/03 01:31:09;;;;;;;6.68;2.72;;;19.20;99.90;;;;;;5091714;28;20070;-58
2021/10/03 01:33:35;;;;;;;5.53;2.78;;;19.10;99.90;;;;;;5091400;28;20044;-54
2021/10/03 01:36:00;;;;;;;2.60;2.28;;;19.20;99.90;;;;;;5091335;28;20133;-54
2021/10/03 01:38:26;;;;;;;4.25;2.75;;;19.10;99.90;;;;;;5091402;28;20103;-56
2021/10/03 01:40:52;;;;;;;4.18;3.13;;;19.10;99.90;;;;;;5090824;28;20035;-55
2021/10/03 01:43:18;;;;;;;7.70;2.50;;;19.10;99.90;;;;;;5091567;28;20062;-53
2021/10/03 01:45:45;;;;;;;3.90;2.75;;;19.00;99.90;;;;;;5091309;28;20042;-56
2021/10/03 01:48:16;;;;;;;8.05;2.30;;;19.10;99.90;;;;;;5090965;28;20028;-58
2021/10/03 01:50:44;;;;;;;4.05;2.50;;;19.10;99.90;;;;;;5091123;28;20027;-56
2021/10/03 01:53:12;;;;;;;9.40;2.75;;;19.10;99.90;;;;;;5091790;28;20031;-55
2021/10/03 01:55:38;;;;;;;4.78;2.60;;;19.10;99.90;;;;;;5091484;28;20032;-54
2021/10/03 01:58:05;;;;;;;4.82;2.35;;;19.00;99.90;;;;;;5090488;28;20028;-54
2021/10/03 02:00:31;;;;;;;4.40;3.22;;;19.00;99.90;;;;;;5090796;28;20504;-54
2021/10/03 02:02:59;;;;;;;8.20;2.33;;;19.00;99.90;;;;;;5091692;28;20021;-56
2021/10/03 02:05:25;;;;;;;4.35;2.83;;;18.90;99.90;;;;;;5091034;28;20045;-56
2021/10/03 02:07:51;;;;;;;7.82;2.35;;;18.90;99.90;;;;;;5090771;28;20024;-58
2021/10/03 02:10:17;;;;;;;3.47;2.33;;;18.90;99.90;;;;;;5090442;28;20937;-55
2021/10/03 02:12:42;;;;;;;8.88;2.85;;;18.90;99.90;;;;;;5091649;28;20028;-58
2021/10/03 02:15:08;;;;;;;8.20;2.83;;;18.80;99.90;;;;;;5090964;28;20415;-56
2021/10/03 02:17:33;;;;;;;5.28;2.88;;;18.80;99.90;;;;;;5080380;28;20020;-53
2021/10/03 02:20:00;;;;;;;4.60;2.97;;;18.80;99.90;;;;;;5090771;28;20036;-53
2021/10/03 02:22:26;;;;;;;5.80;2.92;;;18.80;99.90;;;;;;5091095;28;20047;-54
2021/10/03 02:24:56;;;;;;;3.80;2.65;;;18.70;99.90;;;;;;5091383;28;20030;-53
2021/10/03 02:27:25;;;;;;;4.10;3.13;;;18.70;99.90;;;;;;5091625;28;20073;-53
2021/10/03 02:29:51;;;;;;;6.88;2.90;;;18.70;99.90;;;;;;5090846;28;20089;-57
2021/10/03 02:32:17;;;;;;;4.75;3.42;;;18.60;99.90;;;;;;5090386;28;20020;-56
2021/10/03 02:34:43;;;;;;;4.22;2.67;;;18.60;99.90;;;;;;5078541;28;20507;-59
2021/10/03 02:37:08;;;;;;;10.13;3.00;;;18.50;99.90;;;;;;5089718;28;20038;-57
2021/10/03 02:39:34;;;;;;;4.18;2.90;;;18.50;99.90;;;;;;5090865;28;20109;-54
2021/10/03 02:42:00;;;;;;;5.88;3.10;;;18.50;99.90;;;;;;5091079;28;20039;-57
2021/10/03 02:44:26;;;;;;;8.93;3.40;;;18.50;99.90;;;;;;5090719;28;20368;-57
2021/10/03 02:46:52;;;;;;;4.60;3.20;;;18.40;99.90;;;;;;5089379;28;20032;-56
2021/10/03 02:49:18;;;;;;;6.97;3.17;;;18.40;99.90;;;;;;5090024;28;20070;-56
2021/10/03 02:51:44;;;;;;;5.68;3.53;;;18.50;99.90;;;;;;5090552;28;20503;-57
2021/10/03 02:54:10;;;;;;;5.78;3.45;;;18.40;99.90;;;;;;5091019;28;20036;-57
2021/10/03 02:56:35;;;;;;;4.63;3.22;;;18.40;99.90;;;;;;5090210;28;20046;-58
2021/10/03 02:59:01;;;;;;;4.38;3.35;;;18.40;99.90;;;;;;5090637;28;20052;-59
2021/10/03 03:01:26;;;;;;;6.38;3.47;;;18.40;99.90;;;;;;5087123;28;20488;-56
2021/10/03 03:03:52;;;;;;;7.07;3.42;;;18.40;99.90;;;;;;5090712;28;20405;-55
2021/10/03 03:06:18;;;;;;;5.47;3.83;;;18.40;99.90;;;;;;5090633;28;20048;-57
2021/10/03 03:08:45;;;;;;;7.93;3.25;;;18.40;99.90;;;;;;5090366;28;20040;-58
2021/10/03 03:11:10;;;;;;;7.57;3.75;;;18.50;99.90;;;;;;5090733;28;20043;-57
2021/10/03 03:13:36;;;;;;;6.45;3.88;;;18.50;99.90;;;;;;5090194;28;20104;-56
2021/10/03 03:16:02;;;;;;;5.85;3.95;;;18.40;99.90;;;;;;5090476;28;20070;-55
2021/10/03 03:18:28;;;;;;;10.18;3.60;;;18.50;99.90;;;;;;5089765;28;20036;-56
2021/10/03 03:20:53;;;;;;;7.20;3.95;;;18.50;99.90;;;;;;5053461;23;20108;-58
2021/10/03 03:23:19;;;;;;;5.20;4.07;;;18.60;99.90;;;;;;5020064;28;20568;-58
2021/10/03 03:25:44;;;;;;;9.55;4.07;;;18.60;99.90;;;;;;5028918;28;20079;-60
2021/10/03 03:28:11;;;;;;;6.53;4.88;;;18.60;99.90;;;;;;5030584;28;20077;-59
2021/10/03 03:30:38;;;;;;;11.85;4.55;;;18.70;99.90;;;;;;5016417;28;20434;-60
2021/10/03 03:33:04;;;;;;;10.90;4.40;;;18.70;99.90;;;;;;5015954;28;20117;-59
2021/10/03 03:35:30;;;;;;;6.97;4.07;;;18.80;99.90;;;;;;5027598;28;20041;-60
2021/10/03 03:37:56;;;;;;;10.00;5.07;;;18.80;99.90;;;;;;5027923;28;20037;-59
2021/10/03 03:40:21;;;;;;;7.22;4.60;;;18.90;99.90;;;;;;5018914;28;20034;-59
2021/10/03 03:42:47;;;;;;;7.75;4.53;;;18.90;99.90;;;;;;5017036;28;20030;-60
2021/10/03 03:45:14;;;;;;;10.57;5.35;;;19.00;99.90;;;;;;5021210;28;20485;-60
2021/10/03 03:47:40;;;;;;;14.43;4.97;;;19.00;99.90;;;;;;5024173;28;20478;-60
2021/10/03 03:50:11;;;;;;;10.68;6.15;;;19.10;99.90;;;;;;5031028;28;20025;-60
2021/10/03 03:52:37;;;;;;;7.88;5.30;;;19.10;99.90;;;;;;5013583;28;20046;-60
2021/10/03 03:55:03;;;;;;;16.23;4.93;;;19.10;99.90;;;;;;5017960;28;20017;-58
2021/10/03 03:57:29;;;;;;;7.05;5.30;;;19.20;99.90;;;;;;5014271;28;20025;-58
2021/10/03 03:59:54;;;;;;;9.60;5.13;;;19.30;99.90;;;;;;5031909;28;20029;-60
2021/10/03 04:02:20;;;;;;;10.93;5.65;;;19.30;99.90;;;;;;5024054;28;20029;-59
2021/10/03 04:04:46;;;;;;;8.55;4.60;;;19.40;99.90;;;;;;5018267;28;20041;-59
2021/10/03 04:07:11;;;;;;;7.97;5.07;;;19.40;99.90;;;;;;5014397;28;20033;-60
2021/10/03 04:09:37;;;;;;;7.70;5.32;;;19.40;99.90;;;;;;5012918;28;20498;-57
2021/10/03 04:12:03;;;;;;;9.90;5.32;;;19.40;99.90;;;;;;5024503;28;20033;-59
2021/10/03 04:14:29;;;;;;;20.65;5.10;;;19.40;99.90;;;;;;5015058;28;20097;-59
2021/10/03 04:16:54;;;;;;;9.23;5.47;;;19.60;99.90;;;;;;5015024;28;20060;-60
2021/10/03 04:19:20;;;;;;;14.50;4.95;;;19.70;99.90;;;;;;5010548;28;20042;-59
2021/10/03 04:21:46;;;;;;;11.73;5.28;;;19.80;99.90;;;;;;5015377;28;20485;-59
2021/10/03 04:24:11;;;;;;;9.57;5.22;;;19.80;99.90;;;;;;5021172;28;20076;-58
2021/10/03 04:26:37;;;;;;;10.43;5.20;;;19.90;99.90;;;;;;5031851;28;20025;-58
2021/10/03 04:29:03;;;;;;;7.53;5.20;;;19.90;99.90;;;;;;5017320;28;20053;-55
2021/10/03 04:31:28;;;;;;;16.55;5.57;;;20.00;99.90;;;;;;5029785;28;20405;-57
2021/10/03 04:33:56;;;;;;;8.15;5.20;;;20.00;99.90;;;;;;5023694;28;20123;-58
2021/10/03 04:36:23;;;;;;;10.65;5.80;;;20.00;99.90;;;;;;5018293;28;20401;-58
2021/10/03 04:38:48;;;;;;;9.25;5.40;;;20.00;99.90;;;;;;5031188;28;20021;-56
2021/10/03 04:41:14;;;;;;;8.70;5.28;;;20.00;99.90;;;;;;5016795;28;20503;-57
2021/10/03 04:43:39;;;;;;;10.00;4.75;;;20.00;99.90;;;;;;5013595;28;20552;-59
2021/10/03 04:46:05;;;;;;;11.38;4.88;;;20.00;99.90;;;;;;5015599;28;20053;-56
2021/10/03 04:48:30;;;;;;;10.43;4.88;;;20.10;99.90;;;;;;5022345;28;20331;-57
2021/10/03 04:50:56;;;;;;;12.95;5.50;;;20.10;99.90;;;;;;5015380;28;20030;-56
2021/10/03 04:53:22;;;;;;;11.65;5.47;;;20.10;99.90;;;;;;5017741;28;20081;-59
2021/10/03 04:55:47;;;;;;;7.68;5.50;;;20.10;99.90;;;;;;5028901;28;20473;-58
2021/10/03 04:58:13;;;;;;;10.45;5.47;;;20.20;99.90;;;;;;5031123;28;20032;-59
2021/10/03 05:00:38;;;;;;;9.00;5.70;;;20.20;99.90;;;;;;5026763;28;20083;-59
2021/10/03 05:03:04;;;;;;;7.35;4.82;;;20.20;99.90;;;;;;5025798;28;20028;-57
2021/10/03 05:05:29;;;;;;;9.23;4.85;;;20.30;99.90;;;;;;5027414;28;20033;-58
2021/10/03 05:07:55;;;;;;;16.75;4.75;;;20.20;99.90;;;;;;5024118;28;20022;-58
2021/10/03 05:10:20;;;;;;;13.75;5.28;;;20.30;99.90;;;;;;5025671;28;20022;-59
2021/10/03 05:12:46;;;;;;;7.55;4.72;;;20.20;99.90;;;;;;5025438;28;20020;-56
2021/10/03 05:15:11;;;;;;;8.88;4.40;;;20.30;99.90;;;;;;5024787;28;20413;-59
2021/10/03 05:17:37;;;;;;;12.77;4.85;;;20.30;99.90;;;;;;5026227;28;20061;-57
2021/10/03 05:20:03;;;;;;;8.05;4.80;;;20.30;99.90;;;;;;5029375;28;20072;-58
2021/10/03 05:22:29;;;;;;;11.80;5.60;;;20.20;99.90;;;;;;5026603;28;20029;-58
2021/10/03 05:24:54;;;;;;;9.88;5.53;;;20.30;99.90;;;;;;5011022;28;20470;-58
2021/10/03 05:27:20;;;;;;;12.02;5.72;;;20.20;99.90;;;;;;5011811;28;20378;-59
2021/10/03 05:29:47;;;;;;;9.63;4.90;;;20.20;99.90;;;;;;5025553;28;20409;-59
2021/10/03 05:32:13;;;;;;;14.52;5.15;;;20.20;99.90;;;;;;5031452;28;20531;-58
2021/10/03 05:34:39;;;;;;;10.02;5.63;;;20.20;99.90;;;;;;5011558;28;20076;-56
2021/10/03 05:37:04;;;;;;;10.40;4.90;;;20.20;99.90;;;;;;5015589;28;20065;-59
2021/10/03 05:39:30;;;;;;;13.38;4.97;;;20.10;99.90;;;;;;5021219;28;20036;-58
2021/10/03 05:41:55;;;;;;;9.60;5.22;;;20.10;99.90;;;;;;5014517;28;20083;-57
2021/10/03 05:44:21;;;;;;;11.57;5.15;;;20.00;99.90;;;;;;5019161;28;20037;-60
2021/10/03 05:46:47;;;;;;;8.77;5.28;;;20.00;99.90;;;;;;5026428;28;20029;-58
2021/10/03 05:49:13;;;;;;;12.48;4.45;;;20.00;99.90;;;;;;5021835;28;20175;-57
2021/10/03 05:51:38;;;;;;;11.48;5.32;;;20.10;99.90;;;;;;5019557;28;20026;-57
2021/10/03 05:54:04;;;;;;;7.60;4.95;;;20.10;99.90;;;;;;5020581;28;20040;-58
2021/10/03 05:56:31;;;;;;;10.05;4.55;;;20.10;99.90;;;;;;5020428;28;20026;-57
2021/10/03 05:58:56;;;;;;;8.05;5.40;;;20.10;99.90;;;;;;5013160;28;20490;-57
2021/10/03 06:01:22;;;;;;;18.77;5.43;;;20.10;99.90;;;;;;5022855;28;20038;-56
2021/10/03 06:03:47;;;;;;;12.95;5.55;;;20.10;99.90;;;;;;5026334;28;20034;-56
2021/10/03 06:06:13;;;;;;;16.75;6.35;;;20.00;99.90;;;;;;5023553;28;20439;-59
2021/10/03 06:08:39;;;;;;;11.95;5.15;;;20.10;99.90;;;;;;5023463;28;20037;-58
2021/10/03 06:11:04;;;;;;;6.88;5.25;;;20.10;99.90;;;;;;5022820;28;20034;-58
2021/10/03 06:13:30;;;;;;;12.65;5.85;;;20.10;99.90;;;;;;5024012;28;20083;-59
2021/10/03 06:15:57;;;;;;;9.98;5.22;;;20.10;99.90;;;;;;5022830;28;20033;-59
2021/10/03 06:18:23;;;;;;;10.98;4.95;;;20.20;99.90;;;;;;5020214;28;20104;-56
2021/10/03 06:20:49;;;;;;;10.27;4.72;;;20.20;99.90;;;;;;5016928;28;20512;-58
2021/10/03 06:23:15;;;;;;;11.73;5.32;;;20.20;99.90;;;;;;5018723;28;20034;-57
2021/10/03 06:25:40;;;;;;;9.27;5.47;;;20.20;99.90;;;;;;5020429;28;20104;-56
2021/10/03 06:28:06;;;;;;;7.78;5.18;;;20.20;99.90;;;;;;5022523;28;20053;-56
2021/10/03 06:30:32;;;;;;;35.13;5.53;;;20.20;99.90;;;;;;5015219;28;20241;-55
2021/10/03 06:33:00;;;;;;;8.75;4.80;;;20.20;99.90;;;;;;5017589;28;20396;-59
2021/10/03 06:35:30;;;;;;;13.27;7.18;;;20.20;99.90;;;;;;5019677;28;20109;-58
2021/10/03 06:37:57;;;;;;;13.95;5.47;;;20.10;99.90;;;;;;5016840;28;20034;-59
2021/10/03 06:40:24;;;;;;;6.80;4.65;;;20.10;99.90;;;;;;5016885;28;20416;-59
2021/10/03 06:42:50;;;;;;;13.48;5.20;;;20.20;99.90;;;;;;5024838;28;20034;-58
2021/10/03 06:45:16;;;;;;;19.05;5.32;;;20.30;99.90;;;;;;5017270;28;20022;-60
2021/10/03 06:47:42;;;;;;;10.43;4.50;;;20.30;99.90;;;;;;5018074;28;20030;-59
2021/10/03 06:50:08;;;;;;;11.60;5.60;;;20.30;99.90;;;;;;5013714;28;20378;-58
2021/10/03 06:52:35;;;;;;;13.98;5.20;;;20.30;99.90;;;;;;5010669;28;20026;-56
2021/10/03 06:55:00;;;;;;;10.27;4.95;;;20.30;99.90;;;;;;5025521;28;20038;-58
2021/10/03 06:57:26;;;;;;;8.38;4.90;;;20.30;99.90;;;;;;5024375;28;20370;-59
2021/10/03 06:59:51;;;;;;;12.50;5.07;;;20.30;99.90;;;;;;5017481;28;20040;-57
2021/10/03 07:02:22;;;;;;;10.75;6.07;;;20.40;99.90;;;;;;5027061;28;20033;-59
2021/10/03 07:04:48;;;;;;;10.45;5.30;;;20.40;99.90;;;;;;5027954;28;20029;-59
2021/10/03 07:07:13;;;;;;;10.82;5.43;;;20.40;99.90;;;;;;5018067;28;20026;-58
2021/10/03 07:09:39;;;;;;;9.13;5.07;;;20.40;99.90;;;;;;5025250;28;20029;-57
2021/10/03 07:12:05;;;;;;;14.57;4.47;;;20.40;99.90;;;;;;5018698;28;20437;-59
2021/10/03 07:14:30;;;;;;;6.63;4.78;;;20.30;99.90;;;;;;5021995;28;20017;-59
2021/10/03 07:16:56;;;;;;;9.20;5.40;;;20.30;99.90;;;;;;5014797;28;20036;-59
2021/10/03 07:19:21;;;;;;;14.48;5.07;;;20.30;99.90;;;;;;5024187;28;20030;-59
2021/10/03 07:21:47;;;;;;;11.27;5.00;;;20.30;99.90;;;;;;5013690;28;20045;-60
2021/10/03 07:24:13;;;;;;;12.20;5.28;;;20.20;99.90;;;;;;4997543;28;20026;-60
2021/10/03 07:26:38;;;;;;;13.50;4.88;;;20.10;99.90;;;;;;5019839;28;20053;-56
2021/10/03 07:29:04;;;;;;;10.38;5.60;;;20.10;99.90;;;;;;5021029;28;20461;-59
2021/10/03 07:31:30;;;;;;;11.40;4.93;;;20.00;99.90;;;;;;5019631;28;20036;-58
2021/10/03 07:33:57;;;;;;;8.98;5.68;;;20.00;99.90;;;;;;5022512;28;20044;-59
2021/10/03 07:36:23;;;;;;;7.30;4.55;;;19.90;99.90;;;;;;5014735;28;20465;-58
2021/10/03 07:38:49;;;;;;;8.13;5.07;;;19.90;99.90;;;;;;5011995;28;20054;-58
2021/10/03 07:41:15;;;;;;;14.38;6.35;;;19.80;99.90;;;;;;5017266;28;20022;-58
2021/10/03 07:43:43;;;;;;;9.88;5.20;;;19.80;99.90;;;;;;5030982;28;20378;-59
2021/10/03 07:46:09;;;;;;;11.60;5.30;;;19.80;99.90;;;;;;5023466;28;20029;-59
2021/10/03 07:48:34;;;;;;;10.15;4.90;;;19.80;99.90;;;;;;5013558;28;20054;-60
2021/10/03 07:51:00;;;;;;;10.13;5.57;;;19.90;99.90;;;;;;5013434;28;20084;-59
2021/10/03 07:53:26;;;;;;;7.70;4.78;;;20.00;99.90;;;;;;5025593;28;20037;-59
2021/10/03 07:55:51;;;;;;;9.27;5.10;;;20.00;99.90;;;;;;5024234;28;20030;-58
2021/10/03 07:58:17;;;;;;;9.55;5.35;;;20.00;99.90;;;;;;5016047;28;20072;-58
2021/10/03 08:00:42;;;;;;;9.85;4.88;;;19.90;99.90;;;;;;5024512;28;20577;-58
2021/10/03 08:03:08;;;;;;;10.35;4.72;;;20.00;99.90;;;;;;5021173;28;20045;-58
2021/10/03 08:05:33;;;;;;;10.10;5.80;;;20.00;99.90;;;;;;5025038;28;20101;-59
2021/10/03 08:08:00;;;;;;;9.18;4.60;;;20.00;99.90;;;;;;5020113;28;20763;-59
2021/10/03 08:10:27;;;;;;;7.95;5.18;;;20.10;99.90;;;;;;5019255;28;20468;-58
2021/10/03 08:12:53;;;;;;;8.55;5.30;;;20.00;99.90;;;;;;5011659;28;20022;-58
2021/10/03 08:15:19;;;;;;;11.45;4.63;;;20.00;99.90;;;;;;5015296;28;20026;-60
2021/10/03 08:17:44;;;;;;;8.90;4.93;;;20.00;99.90;;;;;;5020585;28;20033;-56
2021/10/03 08:20:10;;;;;;;10.75;4.90;;;19.90;99.90;;;;;;5019550;28;20513;-60
2021/10/03 08:22:35;;;;;;;9.23;5.38;;;19.90;99.90;;;;;;5015828;28;20032;-58
2021/10/03 08:25:05;;;;;;;10.23;4.90;;;19.80;99.90;;;;;;5019407;28;20041;-58
2021/10/03 08:27:32;;;;;;;12.98;5.43;;;19.80;99.90;;;;;;5021461;28;20342;-59
2021/10/03 08:29:58;;;;;;;9.27;5.65;;;19.70;99.90;;;;;;5027123;28;20434;-59
2021/10/03 08:32:23;;;;;;;8.02;5.35;;;19.70;99.90;;;;;;5020036;28;20053;-58
2021/10/03 08:34:49;;;;;;;9.48;5.10;;;19.70;99.90;;;;;;5021922;28;20034;-59
2021/10/03 08:37:16;;;;;;;22.75;5.60;;;19.70;99.90;;;;;;5024649;28;20029;-59
2021/10/03 08:39:43;;;;;;;11.07;5.32;;;19.70;99.90;;;;;;5017826;28;20113;-60
2021/10/03 08:42:08;;;;;;;7.18;4.82;;;19.70;99.90;;;;;;5020352;28;20036;-59
2021/10/03 08:44:34;;;;;;;10.68;5.25;;;19.70;99.90;;;;;;5015606;28;20034;-58
2021/10/03 08:47:00;;;;;;;10.55;5.22;;;19.70;99.90;;;;;;5026420;28;20040;-58
2021/10/03 08:49:25;;;;;;;9.48;5.85;;;19.70;99.90;;;;;;5022722;28;20381;-58
2021/10/03 08:51:51;;;;;;;8.77;5.50;;;19.70;99.90;;;;;;5011149;28;20258;-58
2021/10/03 08:54:18;;;;;;;12.32;5.10;;;19.70;99.90;;;;;;5013246;28;20029;-60
2021/10/03 08:56:45;;;;;;;8.23;5.10;;;19.70;99.90;;;;;;5023107;28;20033;-59
2021/10/03 08:59:11;;;;;;;6.75;4.43;;;19.80;99.90;;;;;;5020615;28;20025;-60
2021/10/03 09:01:56;;;;;;;7.63;4.55;;;19.70;99.90;;;;;;5027649;28;20410;-59
2021/10/03 09:04:32;;;;;;;7.97;4.85;;;19.80;99.90;;;;;;5033100;28;20034;-59
2021/10/03 09:07:12;;;;;;;8.10;4.85;;;19.70;99.90;;;;;;5038566;28;20018;-59
2021/10/03 09:09:58;;;;;;;8.82;5.28;;;19.70;99.90;;;;;;5033079;28;20385;-59
2021/10/03 09:12:44;;;;;;;10.43;5.15;;;19.80;99.90;;;;;;5013886;28;20026;-59
2021/10/03 09:15:15;;;;;;;11.55;4.93;;;19.80;99.90;;;;;;5022163;28;20088;-60
2021/10/03 09:17:47;;;;;;;6.43;4.32;;;19.80;99.90;;;;;;5020936;28;20029;-60
2021/10/03 09:20:21;;;;;;;10.25;4.82;;;19.90;99.90;;;;;;5043506;23;20056;-56
2021/10/03 09:23:01;;;;;;;6.75;4.45;;;19.90;99.90;;;;;;5028014;28;20104;-56
2021/10/03 09:25:36;;;;;;;9.52;5.10;;;19.90;99.90;;;;;;5035662;28;20482;-58
2021/10/03 09:28:04;;;;;;;10.05;4.90;;;19.90;99.90;;;;;;5034942;28;20034;-56
2021/10/03 09:30:29;;;;;;;7.13;4.75;;;19.90;99.90;;;;;;5042973;28;20058;-57
2021/10/03 09:32:58;;;;;;;10.20;4.70;;;20.00;99.90;;;;;;5049775;28;20566;-53
2021/10/03 09:35:28;;;;;;;7.07;4.90;;;20.00;99.90;;;;;;5057584;28;20025;-53
2021/10/03 09:37:53;;;;;;;9.48;5.00;;;19.90;99.90;;;;;;5055504;28;20102;-56
2021/10/03 09:40:20;;;;;;;13.80;5.72;;;20.00;99.90;;;;;;5050478;28;20500;-57
2021/10/03 09:43:03;;;;;;;14.10;5.28;;;20.00;99.90;;;;;;5050670;28;20504;-57
2021/10/03 09:45:29;;;;;;;9.35;4.97;;;20.00;99.90;;;;;;5050659;28;20032;-55
2021/10/03 09:48:02;;;;;;;11.52;5.35;;;20.10;99.90;;;;;;5050055;28;20121;-57
2021/10/03 09:50:29;;;;;;;13.45;5.15;;;20.00;99.90;;;;;;5050529;28;20254;-57
2021/10/03 09:52:55;;;;;;;11.13;5.15;;;20.10;99.90;;;;;;5051833;28;20017;-58
2021/10/03 09:55:25;;;;;;;15.18;5.15;;;20.10;99.90;;;;;;5062626;28;20027;-58
2021/10/03 09:57:53;;;;;;;6.13;4.72;;;20.20;99.90;;;;;;5054833;28;20066;-58
2021/10/03 10:00:18;;;;;;;9.32;4.90;;;20.20;99.90;;;;;;5051567;28;20032;-57
2021/10/03 10:02:46;;;;;;;9.60;5.13;;;20.30;99.90;;;;;;5050812;28;20392;-57
2021/10/03 10:05:12;;;;;;;9.25;4.65;;;20.30;99.90;;;;;;5054107;28;20107;-58
2021/10/03 10:07:38;;;;;;;14.48;5.80;;;20.30;99.90;;;;;;5056713;28;20115;-57
2021/10/03 10:10:06;;;;;;;11.82;4.75;;;20.40;99.90;;;;;;5065998;28;20028;-58
2021/10/03 10:12:38;;;;;;;9.10;5.00;;;20.40;99.90;;;;;;5057110;28;20099;-57
2021/10/03 10:15:09;;;;;;;8.57;4.60;;;20.40;99.90;;;;;;5055994;28;20123;-56
2021/10/03 10:17:38;;;;;;;13.50;5.70;;;20.40;99.90;;;;;;5056357;28;20041;-54
2021/10/03 10:20:20;;;;;;;6.47;4.88;;;20.40;99.90;;;;;;5050603;28;20033;-59
2021/10/03 10:22:59;;;;;;;11.60;5.13;;;20.40;99.90;;;;;;5054077;28;20193;-59
2021/10/03 10:25:37;;;;;;;10.40;4.60;;;20.50;99.90;;;;;;5055538;28;20035;-57
2021/10/03 10:28:07;;;;;;;7.55;4.68;;;20.60;99.90;;;;;;5057557;28;20050;-57
2021/10/03 10:30:34;;;;;;;5.70;4.47;;;20.60;99.90;;;;;;5052137;28;20113;-59
2021/10/03 10:33:05;;;;;;;6.63;4.60;;;20.60;99.90;;;;;;5060645;28;20025;-57
2021/10/03 10:35:33;;;;;;;8.07;5.03;;;20.60;99.90;;;;;;5056506;28;20036;-58
2021/10/03 10:38:01;;;;;;;12.15;4.88;;;20.60;99.90;;;;;;5052264;28;20032;-57
2021/10/03 10:40:33;;;;;;;6.38;4.07;;;20.70;99.90;;;;;;5055275;28;20056;-58
2021/10/03 10:43:01;;;;;;;10.00;5.07;;;20.70;99.90;;;;;;5057480;28;20040;-58
2021/10/03 10:45:27;;;;;;;8.27;5.05;;;20.70;99.90;;;;;;5054008;28;20024;-55
2021/10/03 10:48:11;;;;;;;7.55;4.63;;;20.60;99.90;;;;;;5052670;28;20539;-55
2021/10/03 10:51:01;;;;;;;9.82;5.15;;;20.70;99.90;;;;;;5056267;28;20500;-53
2021/10/03 10:53:27;;;;;;;7.03;4.72;;;20.70;99.90;;;;;;5052289;28;20147;-57
2021/10/03 10:56:04;;;;;;;10.75;5.45;;;20.70;99.90;;;;;;5054482;28;20411;-56
2021/10/03 10:58:37;;;;;;;8.77;5.72;;;20.80;99.90;;;;;;5052914;28;20028;-57
2021/10/03 11:01:13;;;;;;;7.07;4.35;;;20.80;99.90;;;;;;5053264;28;20033;-55
2021/10/03 11:03:41;;;;;;;8.32;5.18;;;20.80;99.90;;;;;;5051541;28;20314;-53
2021/10/03 11:06:19;;;;;;;6.22;4.55;;;20.80;99.90;;;;;;5054804;28;20079;-56
2021/10/03 11:08:59;;;;;;;7.07;4.35;;;20.70;99.90;;;;;;5052945;28;20025;-54
2021/10/03 11:11:26;;;;;;;8.20;4.50;;;20.80;99.90;;;;;;5053085;28;20032;-56
2021/10/03 11:13:57;;;;;;;8.50;4.88;;;20.80;99.90;;;;;;5051286;28;20029;-57
2021/10/03 11:16:27;;;;;;;14.18;4.95;;;20.90;99.90;;;;;;5052638;28;20045;-53
2021/10/03 11:18:58;;;;;;;6.97;4.30;;;20.90;99.90;;;;;;5054607;28;20035;-57
2021/10/03 11:21:50;;;;;;;10.35;4.70;;;20.90;99.90;;;;;;5052866;28;20041;-52
2021/10/03 11:24:18;;;;;;;10.02;4.60;;;20.90;99.90;;;;;;5043417;28;20033;-58
2021/10/03 11:26:48;;;;;;;7.60;5.18;;;20.90;99.90;;;;;;5054355;28;20029;-59
2021/10/03 11:29:15;;;;;;;8.30;4.45;;;20.90;99.90;;;;;;5053528;28;20032;-55
2021/10/03 11:31:47;;;;;;;10.73;4.70;;;21.00;99.90;;;;;;5052860;28;20045;-56
2021/10/03 11:34:39;;;;;;;11.20;4.82;;;21.00;99.90;;;;;;5051369;28;20017;-55
2021/10/03 11:37:09;;;;;;;6.55;4.50;;;21.00;99.90;;;;;;5055159;28;20032;-55
2021/10/03 11:39:38;;;;;;;10.90;4.90;;;21.10;99.90;;;;;;5050880;28;20051;-52
2021/10/03 11:42:06;;;;;;;9.38;4.85;;;21.10;99.90;;;;;;5061172;28;20100;-56
2021/10/03 11:44:33;;;;;;;6.85;4.55;;;21.20;99.90;;;;;;5058896;28;20101;-58
2021/10/03 11:47:01;;;;;;;10.57;4.90;;;21.20;99.90;;;;;;5050517;28;20025;-55
2021/10/03 11:49:29;;;;;;;15.40;4.95;;;21.30;99.90;;;;;;5064065;28;20025;-54
2021/10/03 11:51:57;;;;;;;13.18;4.72;;;21.40;99.90;;;;;;5061275;28;20032;-57
2021/10/03 11:54:30;;;;;;;6.82;4.57;;;21.30;99.90;;;;;;5064382;28;20060;-58
2021/10/03 11:56:55;;;;;;;9.95;4.18;;;21.30;99.90;;;;;;5059670;28;20035;-57
2021/10/03 11:59:21;;;;;;;7.40;4.20;;;21.30;99.90;;;;;;5063267;28;20392;-59
2021/10/03 12:01:46;;;;;;;6.43;4.22;;;21.30;99.90;;;;;;5054634;28;20041;-57
2021/10/03 12:04:25;;;;;;;7.43;4.28;;;21.30;99.90;;;;;;5062985;28;20028;-56
2021/10/03 12:06:51;;;;;;;6.72;4.10;;;21.30;99.90;;;;;;5053781;28;20025;-58
2021/10/03 12:09:17;;;;;;;8.40;4.60;;;21.30;99.90;;;;;;5028354;28;20380;-57
2021/10/03 12:11:47;;;;;;;8.57;4.07;;;21.40;99.90;;;;;;5054467;28;20467;-57
2021/10/03 12:14:13;;;;;;;7.93;4.20;;;21.30;99.90;;;;;;5058846;28;20033;-57
2021/10/03 12:16:49;;;;;;;7.93;4.50;;;21.30;99.90;;;;;;5058594;28;20089;-59
2021/10/03 12:19:15;;;;;;;10.48;4.57;;;21.30;99.90;;;;;;5062440;28;20032;-53
2021/10/03 12:21:40;;;;;;;7.10;4.10;;;21.40;99.90;;;;;;5061691;28;20028;-56
2021/10/03 12:24:11;;;;;;;10.13;4.30;;;21.40;99.90;;;;;;5056698;28;20033;-57
2021/10/03 12:26:46;;;;;;;8.68;4.53;;;21.50;99.90;;;;;;5056240;28;20111;-56
2021/10/03 12:29:18;;;;;;;11.05;4.90;;;21.50;99.90;;;;;;5056568;28;20546;-56
2021/10/03 12:31:46;;;;;;;5.90;3.67;;;21.50;99.90;;;;;;5056080;28;20029;-58
2021/10/03 12:34:14;;;;;;;5.90;4.13;;;21.50;99.90;;;;;;5054925;28;20028;-56
2021/10/03 12:36:53;;;;;;;7.15;4.28;;;21.50;99.90;;;;;;5063138;28;20446;-57
2021/10/03 12:39:21;;;;;;;8.32;4.63;;;21.50;99.90;;;;;;5050795;28;20346;-57
2021/10/03 12:41:48;;;;;;;12.40;4.85;;;21.50;99.90;;;;;;5055980;28;20550;-57
2021/10/03 12:44:14;;;;;;;11.00;4.13;;;21.50;99.90;;;;;;5063125;28;20070;-59